»·PEaware :: N46299 KSBP-KSBP

N46299 :: KSBP-KSBP

FLIGHT INFORMATION

Flight Status: Arrived
Operator: Privately registered:
United States
More flights under this callsign
Pilot: Victor C. (32144)
Aircraft: CESSNA 172 SKYHAWK
(C172)
More flights by this aircraft type
Origin: KSBP San Luis Co Regl
United States
Destination: KSBP San Luis Co Regl
United States
More flights between these airports :: More routes between these airports
Route: +
File this flight plan on PilotEdge
Remarks:
Altitude:
(Current/Filed)
0ft
Speed:
(Current/Filed)
0kts
Departed: 04-Nov-20 01:28 PM
Arrived: 04-Nov-20 01:47 PM
Distance/Time
Traveled:
0nm/0:19
Distance/Time
To Go:
Arrived

Flight Plot

Page will automatically refresh every two minutes.


Map Options




Map Legend


Flown Route
Filed Route
Departure Airport
Arrival Airport
Navaid (VOR, NDB)
Fix

Horizontal Profiles

Position Reports

Time Latitude Longitude Heading Altitude Ground
Speed
04-Nov-20 12:59 34.896952 -120.446159 273 264ft 0kts
04-Nov-20 13:00 34.896952 -120.446159 273 264ft 0kts
04-Nov-20 13:01 34.896952 -120.446159 273 264ft 0kts
04-Nov-20 13:02 34.896952 -120.446159 273 264ft 0kts
04-Nov-20 13:03 34.896952 -120.446159 273 264ft 0kts
04-Nov-20 13:04 34.896952 -120.446159 273 264ft 0kts
04-Nov-20 13:05 34.896952 -120.446159 273 264ft 0kts
04-Nov-20 13:06 34.896952 -120.446159 273 264ft 0kts
04-Nov-20 13:07 34.896952 -120.446159 273 264ft 0kts
04-Nov-20 13:09 34.896952 -120.446159 273 264ft 0kts
04-Nov-20 13:10 34.896952 -120.446159 273 264ft 0kts
04-Nov-20 13:11 34.896952 -120.446159 273 264ft 0kts
04-Nov-20 13:12 34.896952 -120.446159 273 264ft 0kts
04-Nov-20 13:13 34.896952 -120.446159 273 264ft 0kts
04-Nov-20 13:14 34.896952 -120.446159 273 264ft 0kts
04-Nov-20 13:15 34.896952 -120.446159 273 264ft 0kts
04-Nov-20 13:16 34.896952 -120.446159 273 264ft 0kts
04-Nov-20 13:17 34.896952 -120.446159 273 264ft 0kts
04-Nov-20 13:18 34.896952 -120.446159 273 264ft 0kts
04-Nov-20 13:19 34.896952 -120.446159 273 264ft 0kts
04-Nov-20 13:20 34.896952 -120.446159 273 264ft 0kts
04-Nov-20 13:21 34.896954 -120.446204 273 264ft 2kts
04-Nov-20 13:22 34.894643 -120.445592 134 264ft 24kts
04-Nov-20 13:23 34.893557 -120.444865 172 264ft 0kts
04-Nov-20 13:24 34.893552 -120.444864 172 264ft 0kts
04-Nov-20 13:24 34.893552 -120.444864 172 264ft 0kts
04-Nov-20 13:26 34.893552 -120.444864 172 264ft 0kts
04-Nov-20 13:26 34.893552 -120.444864 172 264ft 0kts
04-Nov-20 13:28 34.896361 -120.450093 315 264ft 77kts
04-Nov-20 13:28 34.910899 -120.467978 316 1020ft 88kts
04-Nov-20 13:30 34.933922 -120.491237 320 2065ft 94kts
04-Nov-20 13:30 34.949833 -120.505657 344 2433ft 82kts
04-Nov-20 13:31 34.976518 -120.502720 3 2402ft 99kts
04-Nov-20 13:32 35.002944 -120.499666 3 2582ft 92kts
04-Nov-20 13:33 35.028224 -120.496738 3 2762ft 89kts
04-Nov-20 13:34 35.053857 -120.494102 3 2590ft 94kts
04-Nov-20 13:35 35.079531 -120.491533 3 2426ft 87kts
04-Nov-20 13:36 35.102250 -120.489341 3 2399ft 78kts
04-Nov-20 13:37 35.123116 -120.490118 324 2379ft 75kts
04-Nov-20 13:38 35.138159 -120.506136 322 2384ft 70kts
04-Nov-20 13:39 35.152683 -120.521729 322 2061ft 72kts
04-Nov-20 13:40 35.168619 -120.538429 322 1670ft 78kts
04-Nov-20 13:41 35.184782 -120.554643 317 1515ft 71kts
04-Nov-20 13:42 35.198663 -120.571018 309 1403ft 67kts
04-Nov-20 13:43 35.208741 -120.591403 306 1126ft 72kts
04-Nov-20 13:44 35.220380 -120.610686 304 800ft 64kts
04-Nov-20 13:45 35.230290 -120.628462 303 386ft 64kts
04-Nov-20 13:46 35.237488 -120.639837 5 214ft 8kts
04-Nov-20 13:47 35.237605 -120.639803 35 214ft 1kts
04-Nov-20 13:48 35.237297 -120.636881 294 214ft 3kts

Navigation Log

Ident Type
Flight plan parsing failed, navigation log unavailable